createdAt,value
2023-01-05T00:00:03.099Z,15.50
2023-01-05T00:05:22.143Z,11.90
2023-01-05T00:08:08.808Z,12.97
2023-01-05T00:14:10.336Z,13.13
2023-01-05T00:17:02.284Z,13.47
2023-01-05T00:19:56.044Z,15.90
2023-01-05T00:22:48.050Z,17.17
2023-01-05T00:28:17.949Z,21.07
2023-01-05T00:30:51.395Z,15.00
2023-01-05T00:39:07.245Z,14.83
2023-01-05T00:42:05.180Z,10.47
2023-01-05T00:44:41.860Z,8.43
2023-01-05T00:47:18.968Z,13.47
2023-01-05T00:50:06.275Z,10.90
2023-01-05T00:52:46.910Z,10.87
2023-01-05T00:55:24.413Z,10.10
2023-01-05T00:58:10.864Z,11.00
2023-01-05T01:00:49.913Z,10.03
2023-01-05T01:03:22.339Z,8.87
2023-01-05T01:14:21.292Z,10.07
2023-01-05T01:16:52.161Z,9.80
2023-01-05T01:19:25.619Z,10.63
2023-01-05T01:24:36.069Z,13.00
2023-01-05T01:29:45.927Z,12.77
2023-01-05T01:32:13.917Z,10.97
2023-01-05T01:34:45.739Z,10.07
2023-01-05T01:37:17.477Z,7.30
2023-01-05T01:39:45.289Z,6.53
2023-01-05T01:42:17.144Z,10.53
2023-01-05T01:45:00.164Z,7.83
2023-01-05T01:47:40.644Z,7.80
2023-01-05T01:53:24.021Z,7.70
2023-01-05T01:56:02.575Z,6.57
2023-01-05T01:58:39.094Z,8.40
2023-01-05T02:01:06.882Z,9.40
2023-01-05T02:06:19.805Z,12.27
2023-01-05T02:08:50.588Z,8.67
2023-01-05T02:17:22.861Z,10.17
2023-01-05T02:22:39.031Z,8.40
2023-01-05T02:25:18.471Z,7.30
2023-01-05T02:28:01.244Z,9.47
2023-01-05T02:30:38.802Z,6.57
2023-01-05T02:33:24.936Z,8.90
2023-01-05T02:36:08.722Z,10.27
2023-01-05T02:38:44.786Z,7.47
2023-01-05T02:41:24.004Z,8.43
2023-01-05T02:43:58.901Z,7.57
2023-01-05T02:46:26.763Z,9.80
2023-01-05T02:49:02.854Z,8.93
2023-01-05T02:51:37.221Z,10.70
2023-01-05T02:54:24.652Z,11.97
2023-01-05T03:29:34.827Z,8.93
2023-01-05T03:33:00.284Z,15.30
2023-01-05T03:35:36.607Z,8.57
2023-01-05T03:41:11.052Z,12.13
2023-01-05T03:43:39.122Z,11.97
2023-01-05T03:46:32.970Z,8.23
2023-01-05T03:49:00.935Z,10.50
2023-01-05T03:54:13.796Z,8.10
2023-01-05T04:10:31.878Z,11.37
2023-01-05T04:12:59.605Z,10.70
2023-01-05T04:15:35.985Z,10.53
2023-01-05T04:18:06.835Z,9.27
2023-01-05T05:07:18.270Z,10.43
2023-01-05T05:20:53.654Z,9.87
2023-01-05T05:28:54.506Z,14.47
2023-01-05T05:56:11.416Z,14.77
2023-01-05T05:58:38.473Z,9.73
2023-01-05T06:06:23.114Z,11.40
2023-01-05T06:31:34.869Z,16.00
2023-01-05T06:39:59.187Z,10.00
2023-01-05T06:42:36.555Z,12.93
2023-01-05T06:45:04.099Z,11.40
2023-01-05T06:50:32.206Z,16.70
2023-01-05T06:52:59.753Z,13.20
2023-01-05T06:55:26.535Z,10.97
2023-01-05T06:57:57.194Z,12.03
2023-01-05T07:00:27.719Z,12.93
2023-01-05T07:02:54.456Z,14.63
2023-01-05T07:05:23.346Z,9.03
2023-01-05T07:07:50.903Z,9.47
2023-01-05T07:10:17.605Z,12.57
2023-01-05T07:12:44.389Z,8.50
2023-01-05T07:15:11.310Z,11.83
2023-01-05T07:17:38.128Z,13.63
2023-01-05T07:20:06.579Z,10.37
2023-01-05T07:22:33.351Z,17.43
2023-01-05T07:25:00.208Z,14.47
2023-01-05T07:27:27.038Z,15.07
2023-01-05T07:29:53.653Z,17.67
2023-01-05T07:32:20.391Z,13.93
2023-01-05T07:34:54.924Z,14.30
2023-01-05T07:37:25.006Z,17.03
2023-01-05T07:39:52.689Z,12.77
2023-01-05T07:42:19.775Z,11.87
2023-01-05T07:44:46.539Z,19.87
2023-01-05T07:47:13.247Z,15.53
2023-01-05T07:49:39.914Z,16.10
2023-01-05T07:52:06.697Z,17.03
2023-01-05T07:54:33.341Z,16.10
2023-01-05T07:57:00.184Z,14.13
2023-01-05T07:59:26.788Z,14.70
2023-01-05T08:01:53.628Z,18.20
2023-01-05T08:04:20.840Z,14.37
2023-01-05T08:06:47.791Z,18.63
2023-01-05T08:09:33.075Z,11.97
2023-01-05T08:12:00.112Z,14.07
2023-01-05T08:14:26.855Z,14.93
2023-01-05T08:16:53.622Z,15.00
2023-01-05T08:19:20.452Z,15.63
2023-01-05T08:21:47.155Z,16.70
2023-01-05T08:24:14.390Z,16.43
2023-01-05T08:26:41.401Z,17.23
2023-01-05T08:29:08.444Z,19.27
2023-01-05T08:31:37.796Z,18.50
2023-01-05T08:34:05.675Z,21.47
2023-01-05T08:36:33.450Z,20.13
2023-01-05T08:39:01.845Z,15.83
2023-01-05T08:41:31.804Z,15.90
2023-01-05T08:44:01.220Z,19.33
2023-01-05T08:46:30.413Z,17.93
2023-01-05T08:48:58.724Z,12.10
2023-01-05T08:51:25.477Z,8.30
2023-01-05T08:53:52.429Z,7.97
2023-01-05T08:56:19.462Z,5.97
2023-01-05T08:58:46.453Z,10.57
2023-01-05T09:01:16.015Z,13.97
2023-01-05T09:03:43.131Z,9.57
2023-01-05T09:06:13.077Z,8.17
2023-01-05T09:08:41.991Z,7.43
2023-01-05T09:11:09.216Z,10.70
2023-01-05T09:13:36.657Z,11.07
2023-01-05T09:16:09.122Z,11.40
2023-01-05T09:18:37.102Z,11.57
2023-01-05T09:21:04.461Z,14.03
2023-01-05T09:23:31.194Z,11.40
2023-01-05T09:25:58.089Z,11.57
2023-01-05T09:28:25.047Z,13.63
2023-01-05T09:30:51.833Z,15.63
2023-01-05T09:33:18.952Z,13.03
2023-01-05T09:35:56.903Z,11.67
2023-01-05T09:38:24.435Z,10.53
2023-01-05T09:40:55.459Z,16.20
2023-01-05T09:43:29.784Z,9.07
2023-01-05T09:45:57.755Z,10.83
2023-01-05T09:48:26.177Z,11.30
2023-01-05T09:50:53.363Z,12.33
2023-01-05T09:53:28.667Z,11.37
2023-01-05T09:55:56.101Z,14.40
2023-01-05T09:58:29.994Z,12.80
2023-01-05T10:01:16.118Z,16.37
2023-01-05T10:04:15.183Z,10.23
2023-01-05T10:06:45.679Z,14.43
2023-01-05T10:09:22.633Z,15.77
2023-01-05T10:12:28.514Z,12.33
2023-01-05T10:15:05.760Z,9.73
2023-01-05T10:17:44.257Z,11.53
2023-01-05T10:20:15.313Z,13.90
2023-01-05T10:23:01.994Z,12.07
2023-01-05T10:25:33.790Z,16.33
2023-01-05T10:28:00.509Z,17.63
2023-01-05T10:30:44.169Z,16.87
2023-01-05T10:33:40.232Z,16.20
2023-01-05T10:37:06.657Z,12.00
2023-01-05T10:39:52.542Z,13.50
2023-01-05T10:42:45.725Z,13.97
2023-01-05T10:45:16.004Z,16.60
2023-01-05T10:47:45.444Z,15.30
2023-01-05T10:50:29.090Z,10.83
2023-01-05T10:52:57.098Z,17.90
2023-01-05T10:55:29.380Z,13.03
2023-01-05T10:57:56.144Z,16.00
2023-01-05T11:00:41.125Z,14.47
2023-01-05T11:03:18.020Z,12.67
2023-01-05T11:05:47.834Z,12.87
2023-01-05T11:08:20.261Z,9.57
2023-01-05T11:10:57.251Z,15.37
2023-01-05T11:13:43.023Z,15.73
2023-01-05T11:16:15.016Z,14.50
2023-01-05T11:18:51.192Z,16.80
2023-01-05T11:21:27.016Z,17.10
2023-01-05T11:23:56.809Z,12.60
2023-01-05T11:26:23.669Z,13.77
2023-01-05T11:29:08.803Z,12.43
2023-01-05T11:32:02.666Z,21.73
2023-01-05T11:34:46.230Z,12.47
2023-01-05T11:37:13.378Z,11.57
2023-01-05T11:39:51.821Z,19.17
2023-01-05T11:42:24.993Z,14.40
2023-01-05T11:44:57.377Z,17.43
2023-01-05T11:47:43.547Z,15.43
2023-01-05T11:50:14.295Z,15.33
2023-01-05T11:52:43.861Z,10.87
2023-01-05T11:55:41.503Z,11.53
2023-01-05T11:58:19.273Z,14.03
2023-01-05T12:00:51.863Z,15.67
2023-01-05T12:03:37.024Z,13.20
2023-01-05T12:06:30.309Z,11.73
2023-01-05T12:09:03.093Z,11.07
2023-01-05T12:11:37.899Z,11.97
2023-01-05T12:14:19.758Z,11.97
2023-01-05T12:16:53.950Z,9.73
2023-01-05T12:19:52.561Z,12.17
2023-01-05T12:22:35.866Z,11.37
2023-01-05T12:25:28.680Z,8.93
2023-01-05T12:28:23.741Z,10.97
2023-01-05T12:34:23.452Z,11.20
2023-01-05T12:37:09.054Z,10.37
2023-01-05T12:40:06.591Z,13.03
2023-01-05T12:46:02.493Z,6.70
2023-01-05T12:48:33.533Z,11.83
2023-01-05T12:51:08.899Z,13.30
2023-01-05T12:53:40.994Z,12.40
2023-01-05T12:56:30.312Z,10.30
2023-01-05T12:59:18.894Z,8.63
2023-01-05T13:02:02.106Z,14.00
2023-01-05T13:04:56.989Z,8.57
2023-01-05T13:07:30.449Z,11.67
2023-01-05T13:10:12.777Z,8.83
2023-01-05T13:12:40.595Z,14.80
2023-01-05T13:15:52.595Z,10.63
2023-01-05T13:18:21.193Z,11.97
2023-01-05T13:20:55.800Z,7.47
2023-01-05T13:23:37.289Z,7.93
2023-01-05T13:26:17.655Z,11.27
2023-01-05T13:28:48.618Z,7.97
2023-01-05T13:31:46.562Z,11.93
2023-01-05T13:34:34.604Z,9.53
2023-01-05T13:37:46.195Z,11.50
2023-01-05T13:40:25.136Z,11.50
2023-01-05T15:26:02.528Z,11.07
2023-01-05T15:29:00.863Z,9.10
2023-01-05T15:31:53.495Z,5.93
2023-01-05T15:34:42.192Z,8.10
2023-01-05T15:37:22.487Z,7.20
2023-01-05T15:39:50.928Z,11.30
2023-01-05T15:42:25.153Z,4.40
2023-01-05T15:44:54.378Z,9.13
2023-01-05T15:47:24.010Z,8.40
2023-01-05T15:49:55.266Z,10.13
2023-01-05T15:52:34.429Z,7.57
2023-01-05T15:55:02.946Z,6.30
2023-01-05T15:57:30.537Z,5.30
2023-01-05T15:59:57.291Z,6.87
2023-01-05T16:02:30.557Z,7.70
2023-01-05T16:05:11.786Z,6.50
2023-01-05T16:08:04.458Z,6.60
2023-01-05T16:11:01.325Z,6.03
2023-01-05T16:13:38.075Z,6.20
2023-01-05T16:19:43.867Z,5.37
2023-01-05T16:22:37.814Z,5.83
2023-01-05T16:25:24.135Z,5.53
2023-01-05T16:27:59.138Z,6.33
2023-01-05T16:30:38.095Z,6.50
2023-01-05T19:49:27.807Z,9.27
2023-01-05T19:54:48.856Z,8.80
2023-01-05T19:57:20.262Z,7.57
2023-01-05T19:59:51.612Z,7.97
2023-01-05T20:05:13.161Z,7.70
2023-01-05T20:10:25.953Z,8.57
2023-01-05T20:12:58.805Z,12.00
2023-01-05T20:15:29.145Z,11.93
2023-01-05T20:23:26.064Z,10.70
2023-01-05T20:25:54.297Z,7.63
2023-01-05T20:28:41.215Z,8.27
2023-01-05T20:31:26.940Z,10.13
2023-01-05T20:36:58.616Z,6.47
2023-01-05T20:42:20.710Z,12.33
2023-01-05T20:47:43.206Z,6.00
2023-01-05T20:50:14.996Z,6.53
2023-01-05T20:52:46.455Z,8.67
2023-01-05T20:55:19.059Z,9.30
2023-01-05T20:57:46.951Z,9.87
2023-01-05T21:00:17.977Z,8.10
2023-01-05T21:02:49.935Z,9.17
2023-01-05T21:05:17.611Z,6.70
2023-01-05T21:07:45.728Z,7.27
2023-01-05T21:10:13.288Z,6.40
2023-01-05T21:12:47.197Z,8.93
2023-01-05T21:15:14.548Z,7.20
2023-01-05T21:17:42.795Z,7.00
2023-01-05T21:20:17.267Z,8.63
2023-01-05T21:22:45.492Z,7.37
2023-01-05T21:25:24.852Z,7.10
2023-01-05T21:27:56.344Z,9.20
2023-01-05T21:33:30.424Z,8.20
2023-01-05T21:36:00.860Z,7.77
2023-01-05T21:39:01.648Z,7.30
2023-01-05T21:41:14.826Z,6.97
2023-01-05T21:43:45.145Z,6.20
2023-01-05T21:46:12.868Z,6.07
2023-01-05T21:48:45.200Z,6.17
2023-01-05T21:51:31.121Z,6.47
2023-01-05T21:54:27.376Z,6.80
2023-01-05T21:56:56.337Z,5.73
2023-01-05T21:59:29.434Z,5.90
2023-01-05T22:01:57.581Z,4.73
2023-01-05T22:04:29.013Z,6.97
2023-01-05T22:07:00.368Z,7.27
2023-01-05T22:09:27.350Z,7.27
2023-01-05T22:11:56.907Z,7.30
2023-01-05T22:14:28.036Z,5.50
2023-01-05T22:16:55.102Z,4.87
2023-01-05T22:19:23.620Z,6.50
2023-01-05T22:21:51.882Z,5.03
2023-01-05T22:24:20.448Z,4.73
2023-01-05T22:26:48.219Z,4.53
2023-01-05T22:29:17.069Z,5.47
2023-01-05T22:31:46.473Z,4.73
2023-01-05T22:34:17.981Z,4.97
2023-01-05T22:36:48.039Z,5.40
2023-01-05T22:39:21.626Z,5.60
2023-01-05T22:41:53.233Z,4.43
2023-01-05T22:44:24.062Z,4.77
2023-01-05T22:46:57.976Z,4.30
2023-01-05T22:49:30.381Z,4.70
2023-01-05T22:51:57.910Z,4.97
2023-01-05T22:54:24.872Z,4.53
2023-01-05T22:56:55.879Z,5.43
2023-01-05T22:59:29.070Z,6.10
2023-01-05T23:02:04.682Z,3.60
2023-01-05T23:04:31.907Z,7.17
2023-01-05T23:07:04.562Z,4.90
2023-01-05T23:09:35.867Z,8.03
2023-01-05T23:12:05.702Z,5.57
2023-01-05T23:14:32.787Z,8.13
2023-01-05T23:17:05.019Z,8.43
2023-01-05T23:19:34.549Z,10.07
2023-01-05T23:22:01.534Z,9.07
2023-01-05T23:24:31.545Z,8.77
2023-01-05T23:26:58.454Z,12.07
2023-01-05T23:29:29.890Z,9.20
2023-01-05T23:32:01.005Z,10.67
2023-01-05T23:34:33.451Z,14.27
2023-01-05T23:37:03.862Z,11.10
2023-01-05T23:39:38.478Z,10.40
2023-01-05T23:42:06.493Z,11.40
2023-01-05T23:44:33.341Z,12.90
2023-01-05T23:47:04.561Z,13.07
2023-01-05T23:49:34.496Z,11.83
2023-01-05T23:52:01.726Z,10.27
2023-01-05T23:54:28.569Z,13.73
2023-01-05T23:57:01.930Z,12.63
2023-01-05T23:59:29.282Z,13.63
